Home > Products > Valid Products > TAF

000
FTUS44 KAMA 042332
TAFAMA
TAF
KAMA 042332Z 0500/0524 17010KT P6SM FEW300
     FM051100 23011KT P6SM SKC
     FM051500 29011KT P6SM SKC
     FM052000 34009KT P6SM SKC=



000
FTUS44 KAMA 042332
TAFDHT
TAF
KDHT 042332Z 0500/0524 17009KT P6SM FEW300
     FM051100 29008KT P6SM SKC
     FM051300 35011KT P6SM SKC
     FM052000 05009KT P6SM SKC=



000
FTUS44 KAMA 042332
TAFGUY
TAF
KGUY 042332Z 0500/0524 16009KT P6SM FEW300
     FM050800 24006KT P6SM SKC
     FM051200 36009KT P6SM SKC
     FM051900 06008KT P6SM SKC=



000
FTUS44 KAMA 042031 AAA
TAFDHT
TAF AMD
KDHT 042031Z 0421/0518 18007KT P6SM SCT060 SCT300
     FM051300 34008KT P6SM FEW100=



000
FTUS44 KAMA 042028 AAA
TAFGUY
TAF AMD
KGUY 042028Z 0420/0518 18008KT P6SM FEW090 SCT200
     FM051300 33008KT P6SM FEW120 FEW300=



000
FTUS44 KAMA 042027 AAA
TAFAMA
TAF AMD
KAMA 042027Z 0420/0518 17010KT P6SM FEW120 SCT250
     FM051100 21011KT P6SM FEW100 FEW250=



000
FTUS44 KAMA 042027 AAA
TAFDHT
TAF AMD
KDHT 042027Z 0420/0518 18007KT P6SM SCT250
     FM051300 34008KT P6SM FEW100=



000
FTUS44 KAMA 041720
TAFAMA
TAF
KAMA 041720Z 0418/0518 17010KT P6SM FEW120 SCT250
     FM051100 21011KT P6SM FEW100 FEW250=



000
FTUS44 KAMA 041720
TAFGUY
TAF
KGUY 041720Z 0418/0518 18008KT P6SM FEW090 SCT200
     FM051300 33008KT P6SM FEW120 FEW300=



000
FTUS44 KAMA 041720
TAFDHT
TAF
KDHT 041720Z 0418/0518 18007KT P6SM SCT250
     FM051300 34008KT P6SM FEW100=



000
FTUS44 KAMA 041100
TAFDHT
TAF
KDHT 041120Z 0412/0512 18010KT P6SM SCT250=



000
FTUS44 KAMA 041100
TAFGUY
TAF
KGUY 041120Z 0412/0512 19010KT P6SM SCT250=



000
FTUS44 KAMA 041100
TAFAMA
TAF
KAMA 041120Z 0412/0512 19010KT P6SM SCT100 SCT250=



000
FTUS44 KAMA 041100
TAFDHT
TAF
KDHT 041120Z 0412/0512 18010KT P6SM SCT250=



000
FTUS44 KAMA 041100
TAFGUY
TAF
KGUY 041120Z 0412/0512 19010KT P6SM SCT250=



000
FTUS44 KAMA 041100
TAFAMA
TAF
KAMA 041120Z 0412/0512 19010KT P6SM SCT100 SCT250=



000
FTUS44 KAMA 040600 AAA
TAFGUY
TAF AMD
KGUY 040632Z 0407/0506 19008KT P6SM SCT020 BKN120
      TEMPO 0407/0411 5SM TSRA BKN020CB
     FM041500 19009KT P6SM SCT050
     FM050100 16008KT P6SM SCT120=



000
FTUS44 KAMA 040600 AAA
TAFGUY
TAF AMD
KGUY 040632Z 0407/0506 19008KT P6SM SCT020 BKN120
      TEMPO 0407/0411 5SM TSRA BKN020CB
     FM041500 19009KT P6SM SCT050
     FM050100 16008KT P6SM SCT120=



000
FTUS44 KAMA 040500
TAFAMA
TAF
KAMA 040520Z 0406/0506 15010KT P6SM VCTS SCT030CB BKN100
      TEMPO 0406/0410 5SM TSRA BKN020CB
     FM041200 16011KT P6SM SCT120 BKN300
     FM041500 19012KT P6SM SCT050
     FM050100 15010KT P6SM SCT120=



000
FTUS44 KAMA 040500
TAFGUY
TAF
KGUY 040520Z 0406/0506 VRB03KT P6SM SCT020 BKN120
      TEMPO 0406/0410 P6SM BKN020
     FM041500 19009KT P6SM SCT050
     FM050100 16008KT P6SM SCT120=



000
FTUS44 KAMA 040500
TAFDHT
TAF
KDHT 040520Z 0406/0506 15010KT P6SM VCTS SCT030CB BKN100
      TEMPO 0406/0410 3SM +TSRA BKN020CB
     FM041200 17008KT P6SM SCT120 BKN300
     FM041600 19009KT P6SM SCT050
     FM050100 17008KT P6SM SCT120=



000
FTUS44 KAMA 040500
TAFDHT
TAF
KDHT 040520Z 0406/0506 15010KT P6SM VCTS SCT030CB BKN100
      TEMPO 0406/0410 3SM +TSRA BKN020CB
     FM041200 17008KT P6SM SCT120 BKN300
     FM041600 19009KT P6SM SCT050
     FM050100 17008KT P6SM SCT120=



000
FTUS44 KAMA 040500
TAFAMA
TAF
KAMA 040520Z 0406/0506 15010KT P6SM VCTS SCT030CB BKN100
      TEMPO 0406/0410 5SM TSRA BKN020CB
     FM041200 16011KT P6SM SCT120 BKN300
     FM041500 19012KT P6SM SCT050
     FM050100 15010KT P6SM SCT120=



000
FTUS44 KAMA 040500
TAFGUY
TAF
KGUY 040520Z 0406/0506 VRB03KT P6SM SCT020 BKN120
      TEMPO 0406/0410 P6SM BKN020
     FM041500 19009KT P6SM SCT050
     FM050100 16008KT P6SM SCT120=



000
FTUS44 KAMA 040400 AAA
TAFAMA
TAF AMD
KAMA 040445Z 0405/0424 15010KT P6SM VCTS SCT030CB BKN300
      TEMPO 0405/0409 5SM TSRA BKN020CB
     FM041100 16011KT P6SM SCT120 BKN300
     FM041500 19012KT P6SM SCT050=



000
FTUS44 KAMA 040300 AAA
TAFDHT
TAF AMD
KDHT 040347Z 0404/0424 10010KT P6SM SCT040 BKN150
      TEMPO 0406/0410 3SM +TSRA BKN020CB
     FM041000 17008KT P6SM SCT120 BKN300
     FM041600 32009KT P6SM SCT300
     FM042000 09007KT P6SM SCT060=



000
FTUS44 KAMA 040300 AAA
TAFDHT
TAF AMD
KDHT 040347Z 0404/0424 10010KT P6SM SCT040 BKN150
      TEMPO 0406/0410 3SM +TSRA BKN020CB
     FM041000 17008KT P6SM SCT120 BKN300
     FM041600 32009KT P6SM SCT300
     FM042000 09007KT P6SM SCT060=



000
FTUS44 KAMA 040300 AAA
TAFGUY
TAF AMD
KGUY 040331Z 0404/0424 18010KT P6SM BKN120
     FM041500 19009KT P6SM SCT050=



000
FTUS44 KAMA 032300 RRA
TAFAMA
TAF
KAMA 032341Z 0400/0424 15014KT P6SM SCT030 BKN300
      TEMPO 0402/0406 3SM +TSRA BKN020CB
     FM040800 16011KT P6SM SCT120 BKN300
     FM041500 19012KT P6SM SCT050=



000
FTUS44 KAMA 032300 RRA
TAFGUY
TAF
KGUY 032341Z 0400/0424 15009KT P6SM SCT030 BKN300
      TEMPO 0401/0405 3SM +TSRA BKN020CB
     FM040800 18008KT P6SM SCT120 BKN300
     FM041500 19009KT P6SM SCT050=



000
FTUS44 KAMA 032300 RRA
TAFDHT
TAF
KDHT 032341Z 0400/0424 14010KT P6SM SCT040 BKN300
      TEMPO 0401/0405 3SM +TSRA BKN020CB
     FM040700 17008KT P6SM SCT120 BKN300
     FM041600 32009KT P6SM SCT300
     FM042000 09007KT P6SM SCT060=



000
FTUS44 KAMA 031700
TAFAMA
TAF
KAMA 031722Z 0318/0418 16013KT P6SM SCT060 SCT250
     FM040000 15014G20KT P6SM VCTS SCT050CB BKN100
      TEMPO 0402/0405 32020G40KT +TSRA BKN030CB
     FM040800 20010KT P6SM BKN200=



000
FTUS44 KAMA 031700
TAFGUY
TAF
KGUY 031722Z 0318/0418 15009KT P6SM SCT040
     FM040000 13010KT P6SM VCTS SCT040CB BKN070 OVC150
      TEMPO 0402/0405 30020G40KT 3SM +TSRA BKN030CB
     FM040800 14008KT P6SM BKN150=



000
FTUS44 KAMA 031700
TAFDHT
TAF
KDHT 031722Z 0318/0418 16009KT P6SM SCT030
     FM040000 12010KT P6SM VCTS SCT050CB BKN080 OVC150
      TEMPO 0401/0404 32020G40KT 3SM +TSRA BKN030CB
     FM040700 08012KT P6SM BKN200
     FM041500 31008KT P6SM SCT250=



000
FTUS44 KAMA 031100
TAFGUY
TAF
KGUY 031120Z 0312/0412 15010KT P6SM SCT050 SCT250
     FM040100 10008KT P6SM BKN070=



000
FTUS44 KAMA 031100
TAFGUY
TAF
KGUY 031120Z 0312/0412 15010KT P6SM SCT050 SCT250
     FM040100 10008KT P6SM BKN070=



000
FTUS44 KAMA 031100
TAFDHT
TAF
KDHT 031120Z 0312/0412 19010KT P6SM SCT050 SCT250
     FM040100 12010KT P6SM BKN080=



000
FTUS44 KAMA 031100
TAFAMA
TAF
KAMA 031120Z 0312/0412 19010KT P6SM SCT060 SCT250
     FM040100 15013KT P6SM BKN100=



000
FTUS44 KAMA 031100
TAFAMA
TAF
KAMA 031120Z 0312/0412 19010KT P6SM SCT060 SCT250
     FM040100 15013KT P6SM BKN100=



000
FTUS44 KAMA 031100
TAFDHT
TAF
KDHT 031120Z 0312/0412 19010KT P6SM SCT050 SCT250
     FM040100 12010KT P6SM BKN080=



000
FTUS44 KAMA 030600 AAA
TAFDHT
TAF AMD
KDHT 030637Z 0307/0406 15008KT P6SM VCTS SCT030CB BKN120 OVC300
      TEMPO 0307/0311 VRB30G40KT 5SM TSRA BR OVC040CB
     FM031100 02007KT P6SM SCT010 BKN120 OVC300
     FM031500 11009KT P6SM SCT035 BKN300
     FM032000 15011KT P6SM SCT045 BKN300=



000
FTUS44 KAMA 030600 AAA
TAFDHT
TAF AMD
KDHT 030637Z 0307/0406 15008KT P6SM VCTS SCT030CB BKN120 OVC300
      TEMPO 0307/0311 VRB30G40KT 5SM TSRA BR OVC040CB
     FM031100 02007KT P6SM SCT010 BKN120 OVC300
     FM031500 11009KT P6SM SCT035 BKN300
     FM032000 15011KT P6SM SCT045 BKN300=



000
FTUS44 KAMA 030500
TAFAMA
TAF
KAMA 030520Z 0306/0406 14009KT P6SM VCTS SCT030CB BKN120 OVC300
     FM031000 14009KT P6SM SCT012 BKN120 OVC300
     FM031500 17013KT P6SM SCT035 BKN300
     FM032000 16014KT P6SM SCT040 BKN300=



000
FTUS44 KAMA 030500
TAFGUY
TAF
KGUY 030520Z 0306/0406 VRB06KT P6SM SCT030 SCT120 BKN300
     FM030900 VRB06KT P6SM SCT010 SCT120 BKN300
     FM031600 13010KT P6SM SCT035 BKN300
     FM032000 14011KT P6SM SCT040 BKN300=



000
FTUS44 KAMA 030500
TAFDHT
TAF
KDHT 030520Z 0306/0406 36007KT P6SM VCTS SCT030CB BKN120 OVC300
     FM030900 02007KT P6SM SCT010 BKN120 OVC300
     FM031500 11009KT P6SM SCT035 BKN300
     FM032000 15011KT P6SM SCT045 BKN300=



000
FTUS44 KAMA 030500
TAFDHT
TAF
KDHT 030520Z 0306/0406 36007KT P6SM VCTS SCT030CB BKN120 OVC300
     FM030900 02007KT P6SM SCT010 BKN120 OVC300
     FM031500 11009KT P6SM SCT035 BKN300
     FM032000 15011KT P6SM SCT045 BKN300=



000
FTUS44 KAMA 030500
TAFGUY
TAF
KGUY 030520Z 0306/0406 VRB06KT P6SM SCT030 SCT120 BKN300
     FM030900 VRB06KT P6SM SCT010 SCT120 BKN300
     FM031600 13010KT P6SM SCT035 BKN300
     FM032000 14011KT P6SM SCT040 BKN300=



000
FTUS44 KAMA 030500
TAFAMA
TAF
KAMA 030520Z 0306/0406 14009KT P6SM VCTS SCT030CB BKN120 OVC300
     FM031000 14009KT P6SM SCT012 BKN120 OVC300
     FM031500 17013KT P6SM SCT035 BKN300
     FM032000 16014KT P6SM SCT040 BKN300=



000
FTUS44 KAMA 030300 AAB
TAFAMA
TAF AMD
KAMA 030347Z 0304/0324 32012KT 5SM TSRA SCT030CB BKN060 OVC300
     FM030500 14009KT P6SM VCTS SCT030CB BKN120 OVC300
     FM030800 14009KT P6SM SCT012 BKN120 OVC300
     FM031500 17013KT P6SM SCT040 BKN300=



000
FTUS44 KAMA 030000 AAA
TAFAMA
TAF AMD
KAMA 030058Z 0301/0324 14009KT P6SM SCT040 BKN300
      TEMPO 0301/0302 6SM -TSRA BKN030CB
     FM030200 14009KT P6SM VCTS SCT030CB BKN120 OVC300
     FM030800 14009KT P6SM SCT012 BKN120 OVC300
     FM031500 17013KT P6SM SCT040 BKN300=



000
FTUS44 KAMA 022300
TAFDHT
TAF
KDHT 022338Z 0300/0324 11008KT P6SM SCT045 BKN100 BKN300
     FM030200 06008KT P6SM VCTS SCT030CB BKN120 OVC300
     FM030800 03007KT 6SM BR SCT010 BKN120 OVC300
     FM031600 13011KT P6SM SCT040 BKN300=



000
FTUS44 KAMA 022300
TAFGUY
TAF
KGUY 022338Z 0300/0324 13007KT P6SM SCT040 BKN300
     FM030200 14007KT P6SM VCTS SCT030CB BKN120 OVC300
     FM030800 VRB06KT 6SM BR SCT010 BKN120 OVC300
     FM031600 13011KT P6SM SCT040 BKN300=



000
FTUS44 KAMA 022300
TAFAMA
TAF
KAMA 022338Z 0300/0324 14009KT P6SM SCT040 BKN300
     FM030200 14009KT P6SM VCTS SCT030CB BKN120 OVC300
     FM030800 14009KT P6SM SCT012 BKN120 OVC300
     FM031500 17013KT P6SM SCT040 BKN300=



000
FTUS44 KAMA 022300
TAFAMA
TAF
KAMA 022338Z 0300/0324 14009KT P6SM SCT040 BKN300
     FM030200 14009KT P6SM VCTS SCT030CB BKN120 OVC300
     FM030800 14009KT P6SM SCT012 BKN120 OVC300
     FM031500 17013KT P6SM SCT040 BKN300=



000
FTUS44 KAMA 022300
TAFDHT
TAF
KDHT 022338Z 0300/0324 11008KT P6SM SCT045 BKN100 BKN300
     FM030200 06008KT P6SM VCTS SCT030CB BKN120 OVC300
     FM030800 03007KT 6SM BR SCT010 BKN120 OVC300
     FM031600 13011KT P6SM SCT040 BKN300=



000
FTUS44 KAMA 022300
TAFGUY
TAF
KGUY 022338Z 0300/0324 13007KT P6SM SCT040 BKN300
     FM030200 14007KT P6SM VCTS SCT030CB BKN120 OVC300
     FM030800 VRB06KT 6SM BR SCT010 BKN120 OVC300
     FM031600 13011KT P6SM SCT040 BKN300=



000
FTUS44 KAMA 021700 RRA
TAFDHT
TAF
KDHT 021751Z 0218/0318 23010KT P6SM SCT250
     FM022000 18008KT P6SM FEW050
     FM030100 15012KT P6SM VCTS SCT040CB BKN120 OVC300 PROB30
      0303/0308 VRB20G30KT TSRA BKN040CB
     FM030900 12006KT 6SM BR SCT008 BKN150 OVC250
     FM031600 15007KT P6SM SCT020 BKN150=



000
FTUS44 KAMA 021700 RRA
TAFGUY
TAF
KGUY 021751Z 0218/0318 19007KT P6SM SCT250
     FM022000 16008KT P6SM FEW050
     FM030100 15008KT P6SM VCTS SCT040CB BKN120 OVC300 PROB30
      0303/0308 VRB20G30KT TSRA BKN040CB
     FM030900 18006KT 6SM BR FEW008 BKN150 OVC250
     FM031600 18007KT P6SM SCT020 BKN150 OVC250=



000
FTUS44 KAMA 021700 RRA
TAFAMA
TAF
KAMA 021751Z 0218/0318 20012KT P6SM FEW050 BKN200
     FM030100 15012KT P6SM VCTS SCT040CB BKN120 OVC300 PROB30
      0303/0308 VRB20G30KT TSRA BKN040CB
     FM031500 18011KT P6SM SCT015 BKN150=



000
FTUS44 KAMA 021400 AAA
TAFAMA
TAF AMD
KAMA 021410Z 0214/0312 18010KT P6SM SCT250
     FM021800 21011KT P6SM SCT045 BKN300
     FM022300 15011KT P6SM SCT040 BKN120 OVC300 PROB30 0302/0306
      -TSRA BKN040CB=



000
FTUS44 KAMA 021100
TAFAMA
TAF
KAMA 021121Z 0212/0312 16010KT P6SM VCTS SCT040CB BKN070
      TEMPO 0212/0215 3SM TSRA BKN035CB
     FM021500 21011KT P6SM SCT045 BKN300
     FM022300 15011KT P6SM SCT040 BKN120 OVC300 PROB30 0302/0306
      -TSRA BKN040CB=



000
FTUS44 KAMA 021100
TAFDHT
TAF
KDHT 021121Z 0212/0312 18011KT P6SM SCT030 BKN300
     FM021400 23010KT P6SM SCT050 BKN300
     FM022100 16010KT P6SM SCT040 BKN300 PROB30 0302/0306 -TSRA
      BKN040CB
     FM030900 18005KT 6SM BR SCT010 BKN035=



000
FTUS44 KAMA 021100
TAFGUY
TAF
KGUY 021121Z 0212/0312 19011KT P6SM BKN100
     FM021400 20010KT P6SM SCT100
     FM022000 15009KT P6SM SCT040 BKN300 PROB30 0302/0306 -TSRA
      BKN040CB=



000
FTUS44 KAMA 021100
TAFGUY
TAF
KGUY 021121Z 0212/0312 19011KT P6SM BKN100
     FM021400 20010KT P6SM SCT100
     FM022000 15009KT P6SM SCT040 BKN300 PROB30 0302/0306 -TSRA
      BKN040CB=



000
FTUS44 KAMA 021100
TAFDHT
TAF
KDHT 021121Z 0212/0312 18011KT P6SM SCT030 BKN300
     FM021400 23010KT P6SM SCT050 BKN300
     FM022100 16010KT P6SM SCT040 BKN300 PROB30 0302/0306 -TSRA
      BKN040CB
     FM030900 18005KT 6SM BR SCT010 BKN035=



000
FTUS44 KAMA 021100
TAFAMA
TAF
KAMA 021121Z 0212/0312 16010KT P6SM VCTS SCT040CB BKN070
      TEMPO 0212/0215 3SM TSRA BKN035CB
     FM021500 21011KT P6SM SCT045 BKN300
     FM022300 15011KT P6SM SCT040 BKN120 OVC300 PROB30 0302/0306
      -TSRA BKN040CB=



000
FTUS44 KAMA 021000 AAC
TAFAMA
TAF AMD
KAMA 021024Z 0210/0306 16012KT 2SM -TSRA SCT030CB OVC300
     FM021400 21012KT P6SM SCT045 BKN300
     FM022300 15011KT P6SM SCT040 BKN120 OVC300=



000
FTUS44 KAMA 021000 AAC
TAFAMA
TAF AMD
KAMA 021024Z 0210/0306 16012KT 2SM -TSRA SCT030CB OVC300
     FM021400 21012KT P6SM SCT045 BKN300
     FM022300 15011KT P6SM SCT040 BKN120 OVC300=



000
FTUS44 KAMA 021000 AAB
TAFAMA
TAF AMD
KAMA 021021Z 0210/0306 16012KT 5SM -TSRA SCT030CB OVC300
     FM021400 21012KT P6SM SCT045 BKN300
     FM022300 15011KT P6SM SCT040 BKN120 OVC300=



000
FTUS44 KAMA 021000 AAB
TAFAMA
TAF AMD
KAMA 021021Z 0210/0306 16012KT 5SM -TSRA SCT030CB OVC300
     FM021400 21012KT P6SM SCT045 BKN300
     FM022300 15011KT P6SM SCT040 BKN120 OVC300=



000
FTUS44 KAMA 020800 AAD
TAFGUY
TAF AMD
KGUY 020820Z 0208/0306 17011KT P6SM VCTS SCT030CB BKN300
     FM021400 20010KT P6SM SCT045 SCT300
     FM022000 15009KT P6SM SCT040 BKN300=



000
FTUS44 KAMA 020800 AAC
TAFGUY
TAF AMD
KGUY 020800Z 0208/0306 17011KT P6SM VCTS SCT030CB BKN300
      TEMPO 0208/0210 VRB20G30KT 2SM +TSRA
     FM021400 20010KT P6SM SCT045 SCT300
     FM022000 15009KT P6SM SCT040 BKN300=



000
FTUS44 KAMA 020800 AAC
TAFGUY
TAF AMD
KGUY 020800Z 0208/0306 17011KT P6SM VCTS SCT030CB BKN300
      TEMPO 0208/0210 VRB20G30KT 2SM +TSRA
     FM021400 20010KT P6SM SCT045 SCT300
     FM022000 15009KT P6SM SCT040 BKN300=



000
FTUS44 KAMA 020700 AAB
TAFGUY
TAF AMD
KGUY 020700Z 0207/0306 17011KT P6SM VCTS SCT030CB BKN300
      TEMPO 0207/0210 VRB20G30KT 3/4SM +TSRA
     FM021400 20010KT P6SM SCT045 SCT300
     FM022000 15009KT P6SM SCT040 BKN300=



000
FTUS44 KAMA 020600 AAA
TAFAMA
TAF AMD
KAMA 020626Z 0206/0306 16012KT P6SM SCT030 OVC300
     FM021400 21012KT P6SM SCT045 BKN300
     FM022300 15011KT P6SM SCT040 BKN120 OVC300=



000
FTUS44 KAMA 020600 AAA
TAFGUY
TAF AMD
KGUY 020609Z 0206/0306 17011KT P6SM VCTS SCT030CB BKN300
      TEMPO 0206/0208 VRB28G38KT 3/4SM +TSRA
     FM021400 20010KT P6SM SCT045 SCT300
     FM022000 15009KT P6SM SCT040 BKN300=



000
FTUS44 KAMA 020500 AAA
TAFAMA
TAF AMD
KAMA 020536Z 0206/0306 16012KT P6SM SCT030 OVC300
      TEMPO 0206/0209 BKN005
     FM021400 21012KT P6SM SCT045 BKN300
     FM022300 15011KT P6SM SCT040 BKN120 OVC300=



000
FTUS44 KAMA 020500
TAFDHT
TAF
KDHT 020524Z 0206/0306 16011KT P6SM SCT030 BKN300
     FM021400 23010KT P6SM SCT050 BKN300
     FM022100 16010KT P6SM SCT040 BKN300=



000
FTUS44 KAMA 020500
TAFAMA
TAF
KAMA 020524Z 0206/0306 16012KT P6SM VCTS SCT030CB OVC300
     FM021400 21012KT P6SM SCT045 BKN300
     FM022300 15011KT P6SM SCT040 BKN120 OVC300=



000
FTUS44 KAMA 020500
TAFGUY
TAF
KGUY 020524Z 0206/0306 17011KT P6SM VCTS SCT030CB BKN300
      TEMPO 0206/0208 -TSRA
     FM021400 20010KT P6SM SCT045 SCT300
     FM022000 15009KT P6SM SCT040 BKN300=



000
FTUS44 KAMA 020500 AAA
TAFGUY
TAF AMD
KGUY 020511Z 0205/0224 17009KT P6SM VCTS SCT030CB BKN300
     FM021500 20010KT P6SM SCT045 BKN300
     FM022000 16009KT P6SM SCT045 SCT300=



000
FTUS44 KAMA 020500 AAA
TAFGUY
TAF AMD
KGUY 020511Z 0205/0224 17009KT P6SM VCTS SCT030CB BKN300
     FM021500 20010KT P6SM SCT045 BKN300
     FM022000 16009KT P6SM SCT045 SCT300=



    US Dept of Commerce
    National Oceanic and Atmospheric Administration
    National Weather Service
    1325 East West Highway
    Silver Spring, MD 20910
    Page Author: NWS Internet Services Team
Disclaimer
Information Quality
Credits
Glossary
Privacy Policy
Freedom of Information Act (FOIA)
About Us
Career Opportunities